createdAt,value
2023-04-02T00:02:32.749Z,97056.00
2023-04-02T00:05:34.620Z,97067.00
2023-04-02T00:08:04.414Z,97066.00
2023-04-02T00:10:36.797Z,97066.00
2023-04-02T00:13:07.480Z,97065.00
2023-04-02T00:15:35.592Z,97067.00
2023-04-02T00:18:04.169Z,97068.00
2023-04-02T00:20:36.126Z,97066.00
2023-04-02T00:23:04.339Z,97070.00
2023-04-02T00:25:42.698Z,97076.00
2023-04-02T00:28:13.273Z,97079.00
2023-04-02T00:30:47.965Z,97086.00
2023-04-02T00:33:18.409Z,97083.00
2023-04-02T00:35:46.418Z,97081.00
2023-04-02T00:38:21.397Z,97094.00
2023-04-02T00:40:50.960Z,97097.00
2023-04-02T00:43:18.570Z,97095.00
2023-04-02T00:45:52.566Z,97098.00
2023-04-02T00:48:41.356Z,97095.00
2023-04-02T00:51:15.319Z,97094.00
2023-04-02T00:53:46.462Z,97099.00
2023-04-02T00:56:20.660Z,97096.00
2023-04-02T00:58:53.544Z,97095.00
2023-04-02T01:01:25.172Z,97093.00
2023-04-02T01:03:58.489Z,97105.00
2023-04-02T01:06:31.053Z,97108.00
2023-04-02T01:09:13.659Z,97107.00
2023-04-02T01:12:22.512Z,97103.00
2023-04-02T01:14:55.016Z,97102.00
2023-04-02T01:17:32.891Z,97108.00
2023-04-02T01:20:54.161Z,97117.00
2023-04-02T01:23:29.937Z,97112.00
2023-04-02T01:26:05.761Z,97116.00
2023-04-02T01:28:55.916Z,97118.00
2023-04-02T01:31:24.623Z,97109.00
2023-04-02T01:33:52.346Z,97116.00
2023-04-02T01:36:27.235Z,97114.00
2023-04-02T01:39:02.280Z,97122.00
2023-04-02T01:41:35.430Z,97120.00
2023-04-02T01:44:08.813Z,97121.00
2023-04-02T01:46:41.279Z,97123.00
2023-04-02T01:49:14.879Z,97131.00
2023-04-02T01:51:44.841Z,97131.00
2023-04-02T01:54:16.451Z,97133.00
2023-04-02T01:56:45.494Z,97141.00
2023-04-02T01:59:16.002Z,97144.00
2023-04-02T02:01:48.536Z,97150.00
2023-04-02T02:04:18.083Z,97148.00
2023-04-02T02:06:46.370Z,97153.00
2023-04-02T02:09:18.851Z,97155.00
2023-04-02T02:11:46.687Z,97149.00
2023-04-02T02:14:18.642Z,97152.00
2023-04-02T02:16:47.874Z,97155.00
2023-04-02T02:19:24.450Z,97159.00
2023-04-02T02:21:54.330Z,97161.00
2023-04-02T02:24:24.178Z,97164.00
2023-04-02T02:27:12.505Z,97160.00
2023-04-02T02:29:43.842Z,97168.00
2023-04-02T02:32:13.377Z,97172.00
2023-04-02T02:34:47.064Z,97175.00
2023-04-02T02:37:18.852Z,97177.00
2023-04-02T02:39:51.524Z,97175.00
2023-04-02T02:42:24.750Z,97179.00
2023-04-02T02:44:57.396Z,97180.00
2023-04-02T02:47:29.255Z,97181.00
2023-04-02T02:49:59.814Z,97183.00
2023-04-02T02:52:29.564Z,97182.00
2023-04-02T02:55:01.347Z,97188.00
2023-04-02T02:57:34.194Z,97192.00
2023-04-02T03:00:06.705Z,97183.00
2023-04-02T03:02:37.233Z,97194.00
2023-04-02T03:05:07.557Z,97198.00
2023-04-02T03:07:37.273Z,97193.00
2023-04-02T03:10:14.521Z,97199.00
2023-04-02T03:12:47.882Z,97203.00
2023-04-02T03:15:24.009Z,97204.00
2023-04-02T03:17:57.460Z,97207.00
2023-04-02T03:20:29.078Z,97206.00
2023-04-02T03:23:02.184Z,97211.00
2023-04-02T03:25:37.490Z,97216.00
2023-04-02T03:28:09.434Z,97219.00
2023-04-02T03:30:45.818Z,97221.00
2023-04-02T03:33:16.496Z,97223.00
2023-04-02T03:35:48.336Z,97229.00
2023-04-02T03:38:21.521Z,97233.00
2023-04-02T03:41:00.109Z,97237.00
2023-04-02T03:43:32.934Z,97233.00
2023-04-02T03:46:12.911Z,97238.00
2023-04-02T03:48:44.696Z,97241.00
2023-04-02T03:51:19.006Z,97245.00
2023-04-02T03:53:47.793Z,97245.00
2023-04-02T03:56:29.100Z,97249.00
2023-04-02T03:59:07.375Z,97253.00
2023-04-02T04:01:40.941Z,97249.00
2023-04-02T04:04:14.779Z,97259.00
2023-04-02T04:06:43.878Z,97258.00
2023-04-02T04:09:19.186Z,97263.00
2023-04-02T04:11:52.082Z,97261.00
2023-04-02T04:14:22.438Z,97267.00
2023-04-02T04:16:55.101Z,97271.00
2023-04-02T04:19:30.076Z,97273.00
2023-04-02T04:22:10.793Z,97279.00
2023-04-02T04:24:39.839Z,97278.00
2023-04-02T04:27:13.757Z,97285.00
2023-04-02T04:29:49.980Z,97284.00
2023-04-02T04:32:31.823Z,97285.00
2023-04-02T04:35:03.828Z,97288.00
2023-04-02T04:37:35.214Z,97294.00
2023-04-02T04:40:11.328Z,97296.00
2023-04-02T04:42:41.587Z,97305.00
2023-04-02T04:45:20.145Z,97303.00
2023-04-02T04:47:55.823Z,97317.00
2023-04-02T04:50:30.005Z,97321.00
2023-04-02T04:52:57.937Z,97318.00
2023-04-02T04:55:29.773Z,97326.00
2023-04-02T04:58:01.674Z,97324.00
2023-04-02T05:00:41.789Z,97324.00
2023-04-02T05:03:18.167Z,97328.00
2023-04-02T05:05:46.219Z,97321.00
2023-04-02T05:08:17.852Z,97338.00
2023-04-02T05:10:50.526Z,97333.00
2023-04-02T05:13:23.627Z,97343.00
2023-04-02T05:15:56.336Z,97350.00
2023-04-02T05:18:32.347Z,97352.00
2023-04-02T05:21:07.010Z,97354.00
2023-04-02T05:23:38.213Z,97354.00
2023-04-02T05:26:13.725Z,97354.00
2023-04-02T05:28:47.099Z,97359.00
2023-04-02T05:31:18.564Z,97356.00
2023-04-02T05:33:49.402Z,97366.00
2023-04-02T05:36:21.725Z,97370.00
2023-04-02T05:38:51.176Z,97373.00
2023-04-02T05:41:27.850Z,97375.00
2023-04-02T05:44:08.351Z,97386.00
2023-04-02T05:46:42.793Z,97380.00
2023-04-02T05:49:21.185Z,97379.00
2023-04-02T05:51:55.435Z,97380.00
2023-04-02T05:54:27.904Z,97387.00
2023-04-02T05:57:01.318Z,97390.00
2023-04-02T05:59:32.739Z,97394.00
2023-04-02T06:02:04.419Z,97392.00
2023-04-02T06:04:38.681Z,97398.00
2023-04-02T06:07:09.854Z,97406.00
2023-04-02T06:09:43.104Z,97407.00
2023-04-02T06:12:19.140Z,97422.00
2023-04-02T06:14:47.196Z,97414.00
2023-04-02T06:17:17.215Z,97415.00
2023-04-02T06:19:47.879Z,97420.00
2023-04-02T06:22:21.876Z,97419.00
2023-04-02T06:24:54.004Z,97430.00
2023-04-02T06:27:24.875Z,97428.00
2023-04-02T06:29:55.836Z,97436.00
2023-04-02T06:32:26.905Z,97429.00
2023-04-02T06:34:56.479Z,97436.00
2023-04-02T06:37:31.479Z,97440.00
2023-04-02T06:40:00.382Z,97448.00
2023-04-02T06:42:32.027Z,97450.00
2023-04-02T06:44:59.815Z,97450.00
2023-04-02T06:47:33.202Z,97455.00
2023-04-02T06:50:08.740Z,97461.00
2023-04-02T06:52:41.197Z,97465.00
2023-04-02T06:55:28.471Z,97471.00
2023-04-02T06:57:56.144Z,97478.00
2023-04-02T07:00:29.697Z,97475.00
2023-04-02T07:02:59.161Z,97482.00
2023-04-02T07:05:28.240Z,97476.00
2023-04-02T07:07:55.859Z,97487.00
2023-04-02T07:10:23.588Z,97482.00
2023-04-02T07:12:51.452Z,97491.00
2023-04-02T07:15:20.039Z,97488.00
2023-04-02T07:17:48.158Z,97491.00
2023-04-02T07:20:26.217Z,97492.00
2023-04-02T07:22:55.276Z,97494.00
2023-04-02T07:25:23.160Z,97499.00
2023-04-02T07:27:51.384Z,97499.00
2023-04-02T07:30:19.354Z,97512.00
2023-04-02T07:32:47.274Z,97516.00
2023-04-02T07:35:15.071Z,97519.00
2023-04-02T07:37:42.732Z,97518.00
2023-04-02T07:40:17.861Z,97522.00
2023-04-02T07:42:45.687Z,97521.00
2023-04-02T07:45:13.496Z,97524.00
2023-04-02T07:47:41.611Z,97536.00
2023-04-02T07:50:10.895Z,97529.00
2023-04-02T07:52:42.156Z,97540.00
2023-04-02T07:55:10.801Z,97547.00
2023-04-02T07:57:42.714Z,97547.00
2023-04-02T08:00:13.376Z,97553.00
2023-04-02T08:02:41.258Z,97553.00
2023-04-02T08:05:10.496Z,97557.00
2023-04-02T08:07:39.037Z,97557.00
2023-04-02T08:10:07.835Z,97554.00
2023-04-02T08:12:35.735Z,97569.00
2023-04-02T08:15:06.950Z,97576.00
2023-04-02T08:17:34.660Z,97578.00
2023-04-02T08:20:02.366Z,97574.00
2023-04-02T08:22:30.605Z,97579.00
2023-04-02T08:24:58.665Z,97578.00
2023-04-02T08:27:27.275Z,97587.00
2023-04-02T08:29:55.239Z,97587.00
2023-04-02T08:32:24.308Z,97589.00
2023-04-02T08:34:52.042Z,97595.00
2023-04-02T08:37:19.701Z,97606.00
2023-04-02T08:39:47.586Z,97615.00
2023-04-02T08:42:23.038Z,97621.00
2023-04-02T08:44:56.951Z,97627.00
2023-04-02T08:47:29.910Z,97640.00
2023-04-02T08:50:02.760Z,97642.00
2023-04-02T08:52:33.438Z,97639.00
2023-04-02T08:55:02.764Z,97649.00
2023-04-02T08:57:39.744Z,97660.00
2023-04-02T09:00:14.063Z,97666.00
2023-04-02T09:02:48.411Z,97668.00
2023-04-02T09:05:20.228Z,97677.00
2023-04-02T09:07:49.895Z,97674.00
2023-04-02T09:10:18.590Z,97674.00
2023-04-02T09:12:53.014Z,97674.00
2023-04-02T09:15:29.386Z,97688.00
2023-04-02T09:18:05.214Z,97684.00
2023-04-02T09:20:32.880Z,97697.00
2023-04-02T09:23:00.625Z,97705.00
2023-04-02T09:25:31.344Z,97702.00
2023-04-02T09:28:01.762Z,97713.00
2023-04-02T09:30:41.930Z,97719.00
2023-04-02T09:33:11.601Z,97720.00
2023-04-02T09:35:58.064Z,97730.00
2023-04-02T09:38:29.070Z,97733.00
2023-04-02T09:41:00.763Z,97736.00
2023-04-02T09:43:30.034Z,97743.00
2023-04-02T09:46:00.949Z,97749.00
2023-04-02T09:48:33.277Z,97747.00
2023-04-02T09:51:16.327Z,97752.00
2023-04-02T09:53:45.947Z,97754.00
2023-04-02T09:56:17.092Z,97756.00
2023-04-02T09:58:47.270Z,97762.00
2023-04-02T10:01:36.578Z,97772.00
2023-04-02T10:04:27.335Z,97774.00
2023-04-02T10:06:57.907Z,97780.00
2023-04-02T10:09:30.822Z,97776.00
2023-04-02T10:12:00.574Z,97781.00
2023-04-02T10:14:31.357Z,97794.00
2023-04-02T10:17:02.206Z,97795.00
2023-04-02T10:19:33.594Z,97801.00
2023-04-02T10:22:06.219Z,97801.00
2023-04-02T10:24:33.853Z,97801.00
2023-04-02T10:27:11.053Z,97808.00
2023-04-02T10:29:52.491Z,97827.00
2023-04-02T10:32:24.877Z,97821.00
2023-04-02T10:34:58.544Z,97826.00
2023-04-02T10:38:03.128Z,97823.00
2023-04-02T10:40:36.629Z,97832.00
2023-04-02T10:44:06.108Z,97833.00
2023-04-02T10:46:46.473Z,97838.00
2023-04-02T10:49:22.991Z,97843.00
2023-04-02T10:51:59.211Z,97846.00
2023-04-02T10:54:44.218Z,97851.00
2023-04-02T10:57:20.641Z,97855.00
2023-04-02T10:59:53.168Z,97860.00
2023-04-02T11:02:42.264Z,97869.00
2023-04-02T11:05:19.739Z,97869.00
2023-04-02T11:07:56.773Z,97873.00
2023-04-02T11:10:28.261Z,97876.00
2023-04-02T11:12:59.897Z,97882.00
2023-04-02T11:15:28.380Z,97881.00
2023-04-02T11:17:56.116Z,97890.00
2023-04-02T11:21:00.865Z,97893.00
2023-04-02T11:23:31.650Z,97891.00
2023-04-02T11:29:19.378Z,97902.00
2023-04-02T11:31:47.332Z,97902.00
2023-04-02T11:34:16.928Z,97902.00
2023-04-02T11:37:04.980Z,97897.00
2023-04-02T11:39:55.262Z,97913.00
2023-04-02T11:42:31.720Z,97916.00
2023-04-02T11:45:51.838Z,97913.00
2023-04-02T11:48:31.473Z,97934.00
2023-04-02T11:50:59.679Z,97926.00
2023-04-02T11:53:31.597Z,97929.00
2023-04-02T11:56:17.975Z,97934.00
2023-04-02T11:58:57.258Z,97941.00
2023-04-02T12:01:45.802Z,97950.00
2023-04-02T12:04:32.778Z,97954.00
2023-04-02T12:07:17.838Z,97957.00
2023-04-02T12:09:47.694Z,97960.00
2023-04-02T12:12:26.194Z,97969.00
2023-04-02T12:14:55.904Z,97970.00
2023-04-02T12:17:30.810Z,97977.00
2023-04-02T12:20:03.155Z,97974.00
2023-04-02T12:22:33.755Z,97976.00
2023-04-02T12:25:07.373Z,97990.00
2023-04-02T12:27:38.054Z,97984.00
2023-04-02T12:30:15.326Z,97995.00
2023-04-02T12:32:44.473Z,98000.00
2023-04-02T12:35:29.476Z,98004.00
2023-04-02T12:37:57.936Z,98003.00
2023-04-02T12:40:26.820Z,98002.00
2023-04-02T12:42:54.652Z,98009.00
2023-04-02T12:45:25.711Z,98014.00
2023-04-02T12:47:56.443Z,98028.00
2023-04-02T12:50:24.707Z,98025.00
2023-04-02T12:52:54.926Z,98018.00
2023-04-02T12:55:25.130Z,98024.00
2023-04-02T12:57:56.524Z,98021.00
2023-04-02T13:00:36.139Z,98026.00
2023-04-02T13:03:21.673Z,98023.00
2023-04-02T13:05:55.487Z,98030.00
2023-04-02T13:08:26.219Z,98036.00
2023-04-02T13:10:56.084Z,98030.00
2023-04-02T13:13:28.529Z,98037.00
2023-04-02T13:16:08.540Z,98040.00
2023-04-02T13:18:39.363Z,98034.00
2023-04-02T13:21:08.614Z,98035.00
2023-04-02T13:23:38.256Z,98045.00
2023-04-02T13:26:17.646Z,98051.00
2023-04-02T13:28:55.854Z,98056.00
2023-04-02T13:31:23.580Z,98056.00
2023-04-02T13:33:52.715Z,98063.00
2023-04-02T13:36:20.679Z,98057.00
2023-04-02T13:38:48.410Z,98063.00
2023-04-02T13:41:22.504Z,98066.00
2023-04-02T13:43:51.011Z,98061.00
2023-04-02T13:46:22.391Z,98063.00
2023-04-02T13:48:52.377Z,98068.00
2023-04-02T13:51:22.153Z,98068.00
2023-04-02T13:53:54.884Z,98070.00
2023-04-02T13:56:24.481Z,98068.00
2023-04-02T13:58:52.632Z,98073.00
2023-04-02T14:01:21.639Z,98091.00
2023-04-02T14:03:49.456Z,98089.00
2023-04-02T14:06:27.988Z,98093.00
2023-04-02T14:09:00.600Z,98101.00
2023-04-02T14:11:40.486Z,98107.00
2023-04-02T14:14:31.017Z,98106.00
2023-04-02T14:17:12.210Z,98112.00
2023-04-02T14:19:53.644Z,98122.00
2023-04-02T14:22:33.214Z,98130.00
2023-04-02T14:25:09.843Z,98128.00
2023-04-02T14:27:43.798Z,98133.00
2023-04-02T14:30:18.326Z,98133.00
2023-04-02T14:32:54.836Z,98139.00
2023-04-02T14:35:29.044Z,98144.00
2023-04-02T14:38:07.354Z,98139.00
2023-04-02T14:40:40.041Z,98152.00
2023-04-02T14:43:12.502Z,98156.00
2023-04-02T14:45:53.337Z,98166.00
2023-04-02T14:48:31.840Z,98159.00
2023-04-02T14:51:05.284Z,98162.00
2023-04-02T14:53:44.517Z,98166.00
2023-04-02T14:56:14.061Z,98169.00
2023-04-02T14:58:46.792Z,98175.00
2023-04-02T15:01:18.513Z,98176.00
2023-04-02T15:03:50.793Z,98183.00
2023-04-02T15:06:24.217Z,98181.00
2023-04-02T15:09:09.027Z,98185.00
2023-04-02T15:11:39.647Z,98190.00
2023-04-02T15:14:14.109Z,98195.00
2023-04-02T15:16:41.878Z,98197.00
2023-04-02T15:19:13.707Z,98201.00
2023-04-02T15:24:31.974Z,98207.00
2023-04-02T15:27:09.412Z,98213.00
2023-04-02T15:29:49.265Z,98219.00
2023-04-02T15:32:27.928Z,98215.00
2023-04-02T15:35:00.378Z,98219.00
2023-04-02T15:37:34.730Z,98222.00
2023-04-02T15:40:22.285Z,98231.00
2023-04-02T15:42:58.499Z,98220.00
2023-04-02T15:45:36.547Z,98232.00
2023-04-02T15:48:34.336Z,98239.00
2023-04-02T15:51:16.344Z,98242.00
2023-04-02T15:53:55.877Z,98240.00
2023-04-02T15:56:31.735Z,98251.00
2023-04-02T15:59:20.739Z,98252.00
2023-04-02T16:01:56.269Z,98259.00
2023-04-02T16:04:42.254Z,98262.00
2023-04-02T16:07:23.873Z,98267.00
2023-04-02T16:10:00.420Z,98272.00
2023-04-02T16:12:30.562Z,98278.00
2023-04-02T16:15:05.851Z,98282.00
2023-04-02T16:17:38.530Z,98289.00
2023-04-02T16:20:18.476Z,98285.00
2023-04-02T16:22:59.396Z,98292.00
2023-04-02T16:25:30.946Z,98285.00
2023-04-02T16:28:09.316Z,98301.00
2023-04-02T16:30:54.489Z,98294.00
2023-04-02T16:33:33.767Z,98299.00
2023-04-02T16:36:12.533Z,98311.00
2023-04-02T16:38:53.146Z,98310.00
2023-04-02T16:41:27.190Z,98307.00
2023-04-02T16:44:06.109Z,98320.00
2023-04-02T16:46:41.053Z,98319.00
2023-04-02T16:49:19.751Z,98316.00
2023-04-02T16:51:57.585Z,98317.00
2023-04-02T16:54:31.547Z,98325.00
2023-04-02T16:57:14.701Z,98329.00
2023-04-02T16:59:51.075Z,98331.00
2023-04-02T17:02:29.412Z,98331.00
2023-04-02T17:05:07.165Z,98336.00
2023-04-02T17:07:38.003Z,98337.00
2023-04-02T17:10:21.385Z,98355.00
2023-04-02T17:12:56.331Z,98350.00
2023-04-02T17:15:28.599Z,98364.00
2023-04-02T17:17:59.457Z,98360.00
2023-04-02T17:20:27.714Z,98370.00
2023-04-02T17:22:57.228Z,98374.00
2023-04-02T17:25:27.769Z,98377.00
2023-04-02T17:27:56.905Z,98375.00
2023-04-02T17:30:37.010Z,98381.00
2023-04-02T17:33:08.807Z,98389.00
2023-04-02T17:35:45.694Z,98389.00
2023-04-02T17:38:20.018Z,98398.00
2023-04-02T17:40:54.002Z,98400.00
2023-04-02T17:43:33.980Z,98406.00
2023-04-02T17:46:10.418Z,98411.00
2023-04-02T17:48:45.839Z,98411.00
2023-04-02T17:51:21.412Z,98418.00
2023-04-02T17:54:02.100Z,98423.00
2023-04-02T17:57:03.019Z,98417.00
2023-04-02T17:59:55.022Z,98424.00
2023-04-02T18:02:43.934Z,98428.00
2023-04-02T18:05:19.998Z,98432.00
2023-04-02T18:07:56.439Z,98443.00
2023-04-02T18:10:31.376Z,98446.00
2023-04-02T18:13:05.103Z,98456.00
2023-04-02T18:15:43.368Z,98459.00
2023-04-02T18:18:25.394Z,98464.00
2023-04-02T18:21:05.440Z,98471.00
2023-04-02T18:23:41.516Z,98479.00
2023-04-02T18:26:15.891Z,98479.00
2023-04-02T18:31:26.924Z,98496.00
2023-04-02T18:34:16.024Z,98491.00
2023-04-02T18:36:53.992Z,98498.00
2023-04-02T18:39:28.823Z,98512.00
2023-04-02T18:42:04.808Z,98506.00
2023-04-02T18:44:49.179Z,98510.00
2023-04-02T18:47:23.141Z,98523.00
2023-04-02T18:49:58.771Z,98523.00
2023-04-02T18:52:26.382Z,98527.00
2023-04-02T18:54:57.915Z,98528.00
2023-04-02T18:57:29.766Z,98526.00
2023-04-02T19:00:04.441Z,98524.00
2023-04-02T19:02:39.954Z,98546.00
2023-04-02T19:05:18.508Z,98544.00
2023-04-02T19:07:49.044Z,98543.00
2023-04-02T19:10:28.581Z,98556.00
2023-04-02T19:12:56.270Z,98560.00
2023-04-02T19:15:30.870Z,98563.00
2023-04-02T19:18:06.209Z,98560.00
2023-04-02T19:20:42.091Z,98568.00
2023-04-02T19:23:22.602Z,98578.00
2023-04-02T19:26:00.832Z,98584.00
2023-04-02T19:28:33.838Z,98585.00
2023-04-02T19:31:21.587Z,98587.00
2023-04-02T19:33:52.670Z,98598.00
2023-04-02T19:36:36.600Z,98595.00
2023-04-02T19:39:24.401Z,98606.00
2023-04-02T19:41:54.221Z,98605.00
2023-04-02T19:44:22.665Z,98618.00
2023-04-02T19:46:51.462Z,98612.00
2023-04-02T19:49:22.899Z,98617.00
2023-04-02T19:51:53.633Z,98620.00
2023-04-02T19:54:21.304Z,98611.00
2023-04-02T19:56:49.395Z,98617.00
2023-04-02T19:59:18.467Z,98625.00
2023-04-02T20:01:47.030Z,98625.00
2023-04-02T20:04:15.396Z,98623.00
2023-04-02T20:06:43.193Z,98625.00
2023-04-02T20:09:13.719Z,98628.00
2023-04-02T20:11:41.609Z,98642.00
2023-04-02T20:14:09.272Z,98644.00
2023-04-02T20:16:38.680Z,98632.00
2023-04-02T20:19:06.638Z,98646.00
2023-04-02T20:21:38.389Z,98643.00
2023-04-02T20:24:12.665Z,98647.00
2023-04-02T20:26:41.775Z,98652.00
2023-04-02T20:29:10.109Z,98647.00
2023-04-02T20:31:38.031Z,98656.00
2023-04-02T20:34:08.178Z,98669.00
2023-04-02T20:36:36.081Z,98663.00
2023-04-02T20:39:07.139Z,98664.00
2023-04-02T20:41:34.898Z,98673.00
2023-04-02T20:44:06.447Z,98674.00
2023-04-02T20:46:34.156Z,98676.00
2023-04-02T20:49:02.407Z,98685.00
2023-04-02T20:51:30.094Z,98685.00
2023-04-02T20:53:58.714Z,98688.00
2023-04-02T20:56:26.619Z,98691.00
2023-04-02T20:58:54.391Z,98692.00
2023-04-02T21:01:26.172Z,98701.00
2023-04-02T21:03:55.757Z,98706.00
2023-04-02T21:06:25.004Z,98696.00
2023-04-02T21:08:53.260Z,98709.00
2023-04-02T21:11:22.430Z,98711.00
2023-04-02T21:13:50.820Z,98707.00
2023-04-02T21:16:20.468Z,98705.00
2023-04-02T21:18:51.183Z,98702.00
2023-04-02T21:21:19.909Z,98707.00
2023-04-02T21:23:47.817Z,98705.00
2023-04-02T21:26:18.034Z,98704.00
2023-04-02T21:28:46.325Z,98702.00
2023-04-02T21:31:15.912Z,98704.00
2023-04-02T21:33:46.318Z,98707.00
2023-04-02T21:36:18.161Z,98714.00
2023-04-02T21:38:47.634Z,98723.00
2023-04-02T21:41:17.457Z,98720.00
2023-04-02T21:43:46.035Z,98726.00
2023-04-02T21:46:13.913Z,98728.00
2023-04-02T21:48:41.922Z,98724.00
2023-04-02T21:51:11.534Z,98733.00
2023-04-02T21:53:41.595Z,98726.00
2023-04-02T21:56:12.905Z,98726.00
2023-04-02T21:58:41.275Z,98728.00
2023-04-02T22:01:16.916Z,98730.00
2023-04-02T22:03:48.471Z,98731.00
2023-04-02T22:06:19.738Z,98736.00
2023-04-02T22:08:54.096Z,98739.00
2023-04-02T22:11:24.857Z,98736.00
2023-04-02T22:13:53.538Z,98738.00
2023-04-02T22:16:23.378Z,98735.00
2023-04-02T22:18:52.415Z,98739.00
2023-04-02T22:21:20.813Z,98743.00
2023-04-02T22:23:50.358Z,98738.00
2023-04-02T22:26:20.751Z,98751.00
2023-04-02T22:28:48.596Z,98747.00
2023-04-02T22:31:17.663Z,98747.00
2023-04-02T22:33:45.834Z,98755.00
2023-04-02T22:36:14.613Z,98755.00
2023-04-02T22:38:42.330Z,98760.00
2023-04-02T22:41:13.869Z,98750.00
2023-04-02T22:43:43.826Z,98753.00
2023-04-02T22:46:12.914Z,98744.00
2023-04-02T22:48:41.268Z,98751.00
2023-04-02T22:51:10.025Z,98755.00
2023-04-02T22:53:38.577Z,98757.00
2023-04-02T22:56:08.892Z,98753.00
2023-04-02T22:58:37.985Z,98754.00
2023-04-02T23:01:06.478Z,98750.00
2023-04-02T23:03:34.426Z,98754.00
2023-04-02T23:06:04.105Z,98752.00
2023-04-02T23:08:31.821Z,98754.00
2023-04-02T23:11:04.266Z,98756.00
2023-04-02T23:13:33.055Z,98750.00
2023-04-02T23:16:03.514Z,98757.00
2023-04-02T23:18:32.847Z,98755.00
2023-04-02T23:21:01.062Z,98764.00
2023-04-02T23:23:29.404Z,98766.00
2023-04-02T23:26:05.135Z,98765.00
2023-04-02T23:28:33.510Z,98766.00
2023-04-02T23:31:03.298Z,98762.00
2023-04-02T23:33:31.135Z,98760.00
2023-04-02T23:35:59.346Z,98757.00
2023-04-02T23:38:27.529Z,98765.00
2023-04-02T23:40:55.465Z,98762.00
2023-04-02T23:43:23.191Z,98761.00
2023-04-02T23:45:51.800Z,98760.00
2023-04-02T23:48:20.863Z,98762.00
2023-04-02T23:50:48.561Z,98769.00
2023-04-02T23:53:18.598Z,98763.00
2023-04-02T23:55:46.286Z,98768.00
2023-04-02T23:58:14.245Z,98758.00
